sensor_id;sensor_type;location;lat;lon;timestamp;pressure;altitude;pressure_sealevel;temperature;humidity
38466;BME280;24244;51.950;5.902;2023-03-17T00:00:24;100774.41;;;8.69;67.35
38466;BME280;24244;51.950;5.902;2023-03-17T00:02:56;100774.56;;;8.68;67.28
38466;BME280;24244;51.950;5.902;2023-03-17T00:05:30;100778.25;;;8.67;67.42
38466;BME280;24244;51.950;5.902;2023-03-17T00:08:01;100769.47;;;8.66;67.29
38466;BME280;24244;51.950;5.902;2023-03-17T00:10:32;100775.38;;;8.68;67.33
38466;BME280;24244;51.950;5.902;2023-03-17T00:13:22;100777.03;;;8.69;67.33
38466;BME280;24244;51.950;5.902;2023-03-17T00:15:52;100791.50;;;8.67;67.26
38466;BME280;24244;51.950;5.902;2023-03-17T00:18:22;100795.13;;;8.66;67.39
38466;BME280;24244;51.950;5.902;2023-03-17T00:20:51;100802.25;;;8.65;67.28
38466;BME280;24244;51.950;5.902;2023-03-17T00:23:21;100795.97;;;8.66;67.29
38466;BME280;24244;51.950;5.902;2023-03-17T00:25:51;100782.88;;;8.64;67.31
38466;BME280;24244;51.950;5.902;2023-03-17T00:28:21;100781.38;;;8.62;67.23
38466;BME280;24244;51.950;5.902;2023-03-17T00:30:57;100770.78;;;8.62;67.46
38466;BME280;24244;51.950;5.902;2023-03-17T00:33:27;100768.31;;;8.60;67.37
38466;BME280;24244;51.950;5.902;2023-03-17T00:35:56;100755.25;;;8.59;67.46
38466;BME280;24244;51.950;5.902;2023-03-17T00:38:29;100763.38;;;8.57;67.45
38466;BME280;24244;51.950;5.902;2023-03-17T00:40:57;100767.84;;;8.57;67.57
38466;BME280;24244;51.950;5.902;2023-03-17T00:43:24;100760.06;;;8.55;67.57
38466;BME280;24244;51.950;5.902;2023-03-17T00:45:56;100761.88;;;8.55;67.36
38466;BME280;24244;51.950;5.902;2023-03-17T00:48:26;100757.56;;;8.54;67.51
38466;BME280;24244;51.950;5.902;2023-03-17T00:50:55;100737.38;;;8.53;67.49
38466;BME280;24244;51.950;5.902;2023-03-17T00:53:22;100747.97;;;8.53;67.41
38466;BME280;24244;51.950;5.902;2023-03-17T00:55:51;100757.94;;;8.51;67.37
38466;BME280;24244;51.950;5.902;2023-03-17T00:58:23;100758.94;;;8.50;67.37
38466;BME280;24244;51.950;5.902;2023-03-17T01:00:56;100759.09;;;8.48;67.52
38466;BME280;24244;51.950;5.902;2023-03-17T01:03:26;100750.69;;;8.45;67.36
38466;BME280;24244;51.950;5.902;2023-03-17T01:05:54;100747.38;;;8.43;67.36
38466;BME280;24244;51.950;5.902;2023-03-17T01:08:24;100741.25;;;8.42;67.41
38466;BME280;24244;51.950;5.902;2023-03-17T01:10:54;100744.72;;;8.43;67.58
38466;BME280;24244;51.950;5.902;2023-03-17T01:13:22;100729.00;;;8.41;67.55
38466;BME280;24244;51.950;5.902;2023-03-17T01:15:54;100739.44;;;8.43;67.63
38466;BME280;24244;51.950;5.902;2023-03-17T01:18:27;100731.66;;;8.41;67.28
38466;BME280;24244;51.950;5.902;2023-03-17T01:20:55;100736.94;;;8.41;67.52
38466;BME280;24244;51.950;5.902;2023-03-17T01:23:22;100726.53;;;8.40;67.50
38466;BME280;24244;51.950;5.902;2023-03-17T01:25:49;100729.16;;;8.40;67.40
38466;BME280;24244;51.950;5.902;2023-03-17T01:28:17;100734.66;;;8.38;67.50
38466;BME280;24244;51.950;5.902;2023-03-17T01:30:45;100736.47;;;8.38;67.71
38466;BME280;24244;51.950;5.902;2023-03-17T01:33:18;100733.00;;;8.37;67.66
38466;BME280;24244;51.950;5.902;2023-03-17T01:35:49;100741.13;;;8.36;67.34
38466;BME280;24244;51.950;5.902;2023-03-17T01:38:17;100737.63;;;8.35;67.65
38466;BME280;24244;51.950;5.902;2023-03-17T01:40:47;100729.69;;;8.35;67.75
38466;BME280;24244;51.950;5.902;2023-03-17T01:43:18;100735.16;;;8.34;67.41
38466;BME280;24244;51.950;5.902;2023-03-17T01:46:18;100726.72;;;8.30;67.60
38466;BME280;24244;51.950;5.902;2023-03-17T01:48:54;100720.75;;;8.28;67.73
38466;BME280;24244;51.950;5.902;2023-03-17T01:51:29;100726.22;;;8.26;67.79
38466;BME280;24244;51.950;5.902;2023-03-17T01:53:59;100718.63;;;8.23;67.55
38466;BME280;24244;51.950;5.902;2023-03-17T01:56:28;100715.31;;;8.21;67.68
38466;BME280;24244;51.950;5.902;2023-03-17T01:59:00;100709.38;;;8.19;67.65
38466;BME280;24244;51.950;5.902;2023-03-17T02:04:51;100711.72;;;8.14;67.61
38466;BME280;24244;51.950;5.902;2023-03-17T02:07:21;100712.03;;;8.11;67.73
38466;BME280;24244;51.950;5.902;2023-03-17T02:09:48;100705.28;;;8.09;67.91
38466;BME280;24244;51.950;5.902;2023-03-17T02:12:17;100703.81;;;8.06;67.82
38466;BME280;24244;51.950;5.902;2023-03-17T02:14:44;100699.50;;;8.05;67.96
38466;BME280;24244;51.950;5.902;2023-03-17T02:17:12;100703.13;;;8.04;68.04
38466;BME280;24244;51.950;5.902;2023-03-17T02:19:40;100704.31;;;8.02;68.09
38466;BME280;24244;51.950;5.902;2023-03-17T02:22:10;100701.84;;;8.00;68.10
38466;BME280;24244;51.950;5.902;2023-03-17T02:24:39;100696.88;;;7.97;68.00
38466;BME280;24244;51.950;5.902;2023-03-17T02:27:11;100693.59;;;7.95;68.04
38466;BME280;24244;51.950;5.902;2023-03-17T02:29:40;100684.16;;;7.93;68.23
38466;BME280;24244;51.950;5.902;2023-03-17T02:32:07;100683.34;;;7.92;68.18
38466;BME280;24244;51.950;5.902;2023-03-17T02:34:37;100684.16;;;7.93;68.17
38466;BME280;24244;51.950;5.902;2023-03-17T02:37:04;100685.31;;;7.90;68.12
38466;BME280;24244;51.950;5.902;2023-03-17T02:39:33;100688.97;;;7.89;68.16
38466;BME280;24244;51.950;5.902;2023-03-17T02:42:00;100682.03;;;7.88;68.10
38466;BME280;24244;51.950;5.902;2023-03-17T02:44:28;100682.22;;;7.86;68.33
38466;BME280;24244;51.950;5.902;2023-03-17T02:46:55;100679.72;;;7.85;68.35
38466;BME280;24244;51.950;5.902;2023-03-17T02:49:22;100683.19;;;7.85;68.42
38466;BME280;24244;51.950;5.902;2023-03-17T02:51:50;100681.53;;;7.84;68.35
38466;BME280;24244;51.950;5.902;2023-03-17T02:54:18;100681.53;;;7.84;68.35
38466;BME280;24244;51.950;5.902;2023-03-17T02:56:48;100681.38;;;7.86;68.27
38466;BME280;24244;51.950;5.902;2023-03-17T02:59:15;100686.84;;;7.84;68.27
38466;BME280;24244;51.950;5.902;2023-03-17T03:01:43;100673.75;;;7.83;68.33
38466;BME280;24244;51.950;5.902;2023-03-17T03:04:10;100672.94;;;7.82;68.18
38466;BME280;24244;51.950;5.902;2023-03-17T03:06:40;100673.31;;;7.79;68.31
38466;BME280;24244;51.950;5.902;2023-03-17T03:09:10;100672.31;;;7.80;68.27
38466;BME280;24244;51.950;5.902;2023-03-17T03:11:38;100672.31;;;7.80;68.42
38466;BME280;24244;51.950;5.902;2023-03-17T03:14:06;100677.59;;;7.80;68.45
38466;BME280;24244;51.950;5.902;2023-03-17T03:16:36;100680.25;;;7.80;68.25
38466;BME280;24244;51.950;5.902;2023-03-17T03:19:06;100671.47;;;7.80;68.25
38466;BME280;24244;51.950;5.902;2023-03-17T03:21:34;100672.31;;;7.80;68.30
38466;BME280;24244;51.950;5.902;2023-03-17T03:24:02;100665.19;;;7.81;68.26
38466;BME280;24244;51.950;5.902;2023-03-17T03:29:35;100671.31;;;7.81;68.44
38466;BME280;24244;51.950;5.902;2023-03-17T03:32:03;100670.28;;;7.82;68.30
38466;BME280;24244;51.950;5.902;2023-03-17T03:34:29;100673.75;;;7.83;68.29
38466;BME280;24244;51.950;5.902;2023-03-17T03:36:57;100679.06;;;7.83;68.37
38466;BME280;24244;51.950;5.902;2023-03-17T03:39:24;100680.72;;;7.84;68.31
38466;BME280;24244;51.950;5.902;2023-03-17T03:41:52;100684.03;;;7.86;68.34
38466;BME280;24244;51.950;5.902;2023-03-17T03:44:21;100681.22;;;7.88;68.24
38466;BME280;24244;51.950;5.902;2023-03-17T03:46:49;100682.22;;;7.86;68.31
38466;BME280;24244;51.950;5.902;2023-03-17T03:49:16;100677.75;;;7.87;68.33
38466;BME280;24244;51.950;5.902;2023-03-17T03:51:43;100678.72;;;7.86;68.50
38466;BME280;24244;51.950;5.902;2023-03-17T03:54:10;100678.06;;;7.84;68.74
38466;BME280;24244;51.950;5.902;2023-03-17T03:56:39;100684.34;;;7.83;68.68
38466;BME280;24244;51.950;5.902;2023-03-17T03:59:06;100680.25;;;7.80;68.72
38466;BME280;24244;51.950;5.902;2023-03-17T04:01:33;100679.59;;;7.78;68.54
38466;BME280;24244;51.950;5.902;2023-03-17T04:04:01;100675.28;;;7.77;68.42
38466;BME280;24244;51.950;5.902;2023-03-17T04:06:28;100673.47;;;7.78;68.64
38466;BME280;24244;51.950;5.902;2023-03-17T04:08:57;100677.75;;;7.79;68.71
38466;BME280;24244;51.950;5.902;2023-03-17T04:11:24;100683.88;;;7.79;68.49
38466;BME280;24244;51.950;5.902;2023-03-17T04:13:52;100687.34;;;7.80;68.61
38466;BME280;24244;51.950;5.902;2023-03-17T04:16:20;100691.81;;;7.79;68.48
38466;BME280;24244;51.950;5.902;2023-03-17T04:18:47;100681.06;;;7.81;68.48
38466;BME280;24244;51.950;5.902;2023-03-17T04:21:15;100687.19;;;7.81;68.39
38466;BME280;24244;51.950;5.902;2023-03-17T04:23:44;100697.78;;;7.81;68.40
38466;BME280;24244;51.950;5.902;2023-03-17T04:26:11;100708.00;;;7.84;68.57
38466;BME280;24244;51.950;5.902;2023-03-17T04:28:39;100702.72;;;7.84;68.34
38466;BME280;24244;51.950;5.902;2023-03-17T04:31:07;100694.94;;;7.83;68.60
38466;BME280;24244;51.950;5.902;2023-03-17T04:33:35;100694.94;;;7.83;68.33
38466;BME280;24244;51.950;5.902;2023-03-17T04:36:02;100686.00;;;7.84;68.06
38466;BME280;24244;51.950;5.902;2023-03-17T04:38:31;100687.66;;;7.85;68.23
38466;BME280;24244;51.950;5.902;2023-03-17T04:40:58;100683.19;;;7.85;68.26
38466;BME280;24244;51.950;5.902;2023-03-17T04:43:24;100690.31;;;7.85;68.33
38466;BME280;24244;51.950;5.902;2023-03-17T04:45:52;100693.94;;;7.84;68.24
38466;BME280;24244;51.950;5.902;2023-03-17T04:48:19;100686.00;;;7.84;68.35
38466;BME280;24244;51.950;5.902;2023-03-17T04:50:46;100686.00;;;7.84;68.15
38466;BME280;24244;51.950;5.902;2023-03-17T04:53:13;100689.84;;;7.81;68.13
38466;BME280;24244;51.950;5.902;2023-03-17T04:55:43;100692.47;;;7.81;68.29
38466;BME280;24244;51.950;5.902;2023-03-17T04:58:12;100694.09;;;7.82;68.45
38466;BME280;24244;51.950;5.902;2023-03-17T05:00:56;100696.94;;;7.81;68.12
38466;BME280;24244;51.950;5.902;2023-03-17T05:03:23;100699.59;;;7.81;68.26
38466;BME280;24244;51.950;5.902;2023-03-17T05:05:53;100700.41;;;7.81;68.35
38466;BME280;24244;51.950;5.902;2023-03-17T05:08:21;100699.41;;;7.82;68.34
38466;BME280;24244;51.950;5.902;2023-03-17T05:10:49;100699.41;;;7.82;68.30
38466;BME280;24244;51.950;5.902;2023-03-17T05:13:17;100688.19;;;7.80;68.14
38466;BME280;24244;51.950;5.902;2023-03-17T05:15:45;100701.22;;;7.82;68.18
38466;BME280;24244;51.950;5.902;2023-03-17T05:18:12;100702.88;;;7.83;68.34
38466;BME280;24244;51.950;5.902;2023-03-17T05:20:39;100704.69;;;7.82;68.27
38466;BME280;24244;51.950;5.902;2023-03-17T05:23:07;100694.94;;;7.83;68.47
38466;BME280;24244;51.950;5.902;2023-03-17T05:25:34;100695.75;;;7.83;68.25
38466;BME280;24244;51.950;5.902;2023-03-17T05:28:02;100695.75;;;7.83;68.08
38466;BME280;24244;51.950;5.902;2023-03-17T05:30:29;100689.66;;;7.83;68.27
38466;BME280;24244;51.950;5.902;2023-03-17T05:32:56;100683.53;;;7.82;68.16
38466;BME280;24244;51.950;5.902;2023-03-17T05:35:24;100684.34;;;7.83;68.21
38466;BME280;24244;51.950;5.902;2023-03-17T05:37:54;100673.13;;;7.81;67.82
38466;BME280;24244;51.950;5.902;2023-03-17T05:40:22;100680.25;;;7.80;68.19
38466;BME280;24244;51.950;5.902;2023-03-17T05:42:49;100683.72;;;7.81;68.31
38466;BME280;24244;51.950;5.902;2023-03-17T05:45:18;100677.59;;;7.80;68.19
38466;BME280;24244;51.950;5.902;2023-03-17T05:47:45;100683.88;;;7.79;68.14
38466;BME280;24244;51.950;5.902;2023-03-17T05:50:13;100686.53;;;7.79;68.24
38466;BME280;24244;51.950;5.902;2023-03-17T05:52:39;100684.88;;;7.78;68.23
38466;BME280;24244;51.950;5.902;2023-03-17T05:55:07;100679.59;;;7.78;68.49
38466;BME280;24244;51.950;5.902;2023-03-17T05:57:36;100679.75;;;7.77;68.50
38466;BME280;24244;51.950;5.902;2023-03-17T06:00:05;100667.50;;;7.76;68.40
38466;BME280;24244;51.950;5.902;2023-03-17T06:02:36;100668.50;;;7.75;68.20
38466;BME280;24244;51.950;5.902;2023-03-17T06:05:04;100669.69;;;7.72;68.42
38466;BME280;24244;51.950;5.902;2023-03-17T06:07:34;100670.84;;;7.70;68.58
38466;BME280;24244;51.950;5.902;2023-03-17T06:10:17;100678.59;;;7.71;68.56
38466;BME280;24244;51.950;5.902;2023-03-17T06:12:44;100677.78;;;7.71;68.61
38466;BME280;24244;51.950;5.902;2023-03-17T06:15:10;100676.97;;;7.70;68.42
38466;BME280;24244;51.950;5.902;2023-03-17T06:17:39;100675.97;;;7.71;68.57
38466;BME280;24244;51.950;5.902;2023-03-17T06:20:07;100681.25;;;7.71;68.63
38466;BME280;24244;51.950;5.902;2023-03-17T06:22:37;100673.47;;;7.70;68.42
38466;BME280;24244;51.950;5.902;2023-03-17T06:25:14;100680.44;;;7.71;68.64
38466;BME280;24244;51.950;5.902;2023-03-17T06:27:41;100686.53;;;7.71;68.48
38466;BME280;24244;51.950;5.902;2023-03-17T06:30:09;100674.97;;;7.72;68.65
38466;BME280;24244;51.950;5.902;2023-03-17T06:32:38;100669.69;;;7.72;68.54
38466;BME280;24244;51.950;5.902;2023-03-17T06:35:08;100673.97;;;7.73;68.45
38466;BME280;24244;51.950;5.902;2023-03-17T06:37:36;100673.16;;;7.73;68.63
38466;BME280;24244;51.950;5.902;2023-03-17T06:40:04;100675.59;;;7.74;68.54
38466;BME280;24244;51.950;5.902;2023-03-17T06:42:34;100673.97;;;7.73;68.47
38466;BME280;24244;51.950;5.902;2023-03-17T06:45:02;100677.63;;;7.72;68.71
38466;BME280;24244;51.950;5.902;2023-03-17T06:47:32;100673.97;;;7.73;68.65
38466;BME280;24244;51.950;5.902;2023-03-17T06:50:11;100681.72;;;7.75;68.75
38466;BME280;24244;51.950;5.902;2023-03-17T06:52:39;100689.66;;;7.75;68.64
38466;BME280;24244;51.950;5.902;2023-03-17T06:55:12;100682.56;;;7.75;68.69
38466;BME280;24244;51.950;5.902;2023-03-17T06:57:38;100681.56;;;7.76;68.75
38466;BME280;24244;51.950;5.902;2023-03-17T07:00:09;100682.38;;;7.77;68.59
38466;BME280;24244;51.950;5.902;2023-03-17T07:02:46;100668.16;;;7.78;68.69
38466;BME280;24244;51.950;5.902;2023-03-17T07:05:14;100674.13;;;7.80;68.68
38466;BME280;24244;51.950;5.902;2023-03-17T07:07:41;100671.31;;;7.81;68.62
38466;BME280;24244;51.950;5.902;2023-03-17T07:10:10;100669.31;;;7.83;68.56
38466;BME280;24244;51.950;5.902;2023-03-17T07:12:39;100677.75;;;7.87;68.64
38466;BME280;24244;51.950;5.902;2023-03-17T07:15:07;100674.75;;;7.90;68.62
38466;BME280;24244;51.950;5.902;2023-03-17T07:17:35;100689.47;;;7.93;68.74
38466;BME280;24244;51.950;5.902;2023-03-17T07:20:03;100687.28;;;7.96;68.68
38466;BME280;24244;51.950;5.902;2023-03-17T07:22:33;100683.47;;;7.99;68.60
38466;BME280;24244;51.950;5.902;2023-03-17T07:25:00;100684.97;;;8.01;68.48
38466;BME280;24244;51.950;5.902;2023-03-17T07:27:27;100682.78;;;8.05;68.48
38466;BME280;24244;51.950;5.902;2023-03-17T07:29:54;100690.41;;;8.08;68.46
38466;BME280;24244;51.950;5.902;2023-03-17T07:32:22;100681.09;;;8.12;68.51
38466;BME280;24244;51.950;5.902;2023-03-17T07:34:50;100686.72;;;8.17;68.31
38466;BME280;24244;51.950;5.902;2023-03-17T07:37:16;100686.19;;;8.21;68.29
38466;BME280;24244;51.950;5.902;2023-03-17T07:39:47;100685.84;;;8.24;68.12
38466;BME280;24244;51.950;5.902;2023-03-17T07:42:15;100687.16;;;8.29;68.22
38466;BME280;24244;51.950;5.902;2023-03-17T07:44:43;100687.50;;;8.34;68.34
38466;BME280;24244;51.950;5.902;2023-03-17T07:47:11;100687.16;;;8.37;68.50
38466;BME280;24244;51.950;5.902;2023-03-17T07:49:39;100684.81;;;8.42;68.15
38466;BME280;24244;51.950;5.902;2023-03-17T07:52:08;100682.66;;;8.45;68.28
38466;BME280;24244;51.950;5.902;2023-03-17T07:54:36;100687.41;;;8.50;68.07
38466;BME280;24244;51.950;5.902;2023-03-17T07:57:04;100686.72;;;8.56;67.97
38466;BME280;24244;51.950;5.902;2023-03-17T07:59:32;100676.59;;;8.59;68.06
38466;BME280;24244;51.950;5.902;2023-03-17T08:01:59;100676.06;;;8.64;67.95
38466;BME280;24244;51.950;5.902;2023-03-17T08:04:27;100673.88;;;8.68;67.93
38466;BME280;24244;51.950;5.902;2023-03-17T08:06:54;100666.41;;;8.71;68.11
38466;BME280;24244;51.950;5.902;2023-03-17T08:09:21;100660.41;;;8.77;67.68
38466;BME280;24244;51.950;5.902;2023-03-17T08:11:48;100658.03;;;8.82;67.74
38466;BME280;24244;51.950;5.902;2023-03-17T08:14:16;100653.22;;;8.86;67.76
38466;BME280;24244;51.950;5.902;2023-03-17T08:16:45;100656.97;;;8.91;67.81
38466;BME280;24244;51.950;5.902;2023-03-17T08:19:12;100656.63;;;8.94;67.66
38466;BME280;24244;51.950;5.902;2023-03-17T08:21:39;100651.78;;;8.98;67.72
38466;BME280;24244;51.950;5.902;2023-03-17T08:24:06;100656.53;;;9.02;67.82
38466;BME280;24244;51.950;5.902;2023-03-17T08:26:33;100652.56;;;9.07;67.38
38466;BME280;24244;51.950;5.902;2023-03-17T08:29:00;100660.94;;;9.10;67.81
38466;BME280;24244;51.950;5.902;2023-03-17T08:31:28;100670.88;;;9.16;67.57
38466;BME280;24244;51.950;5.902;2023-03-17T08:33:57;100681.09;;;9.19;67.62
38466;BME280;24244;51.950;5.902;2023-03-17T08:36:24;100671.59;;;9.25;67.66
38466;BME280;24244;51.950;5.902;2023-03-17T08:38:52;100675.56;;;9.29;67.74
38466;BME280;24244;51.950;5.902;2023-03-17T08:41:21;100666.06;;;9.34;67.39
38466;BME280;24244;51.950;5.902;2023-03-17T08:43:50;100654.88;;;9.39;67.39
38466;BME280;24244;51.950;5.902;2023-03-17T08:46:19;100657.00;;;9.43;67.63
38466;BME280;24244;51.950;5.902;2023-03-17T08:48:49;100668.72;;;9.49;67.54
38466;BME280;24244;51.950;5.902;2023-03-17T08:51:17;100667.16;;;9.55;67.32
38466;BME280;24244;51.950;5.902;2023-03-17T08:53:49;100670.91;;;9.60;67.46
38466;BME280;24244;51.950;5.902;2023-03-17T08:56:17;100663.25;;;9.65;67.37
38466;BME280;24244;51.950;5.902;2023-03-17T08:58:43;100659.22;;;9.69;67.08
38466;BME280;24244;51.950;5.902;2023-03-17T09:01:10;100660.50;;;9.73;67.28
38466;BME280;24244;51.950;5.902;2023-03-17T09:03:38;100658.13;;;9.78;67.03
38466;BME280;24244;51.950;5.902;2023-03-17T09:06:09;100662.06;;;9.82;67.21
38466;BME280;24244;51.950;5.902;2023-03-17T09:08:38;100665.19;;;9.86;67.24
38466;BME280;24244;51.950;5.902;2023-03-17T09:11:06;100659.31;;;9.91;67.20
38466;BME280;24244;51.950;5.902;2023-03-17T09:13:34;100647.13;;;9.96;67.14
38466;BME280;24244;51.950;5.902;2023-03-17T09:16:02;100645.75;;;10.00;67.19
38466;BME280;24244;51.950;5.902;2023-03-17T09:18:31;100658.28;;;10.06;67.18
38466;BME280;24244;51.950;5.902;2023-03-17T09:20:58;100663.22;;;10.09;67.12
38466;BME280;24244;51.950;5.902;2023-03-17T09:23:27;100660.63;;;10.16;67.09
38466;BME280;24244;51.950;5.902;2023-03-17T09:25:54;100660.13;;;10.20;66.98
38466;BME280;24244;51.950;5.902;2023-03-17T09:28:21;100662.22;;;10.25;67.19
38466;BME280;24244;51.950;5.902;2023-03-17T09:30:49;100660.84;;;10.29;66.91
38466;BME280;24244;51.950;5.902;2023-03-17T09:33:16;100670.91;;;10.34;66.66
38466;BME280;24244;51.950;5.902;2023-03-17T09:35:43;100674.81;;;10.38;66.99
38466;BME280;24244;51.950;5.902;2023-03-17T09:38:10;100671.44;;;10.44;66.68
38466;BME280;24244;51.950;5.902;2023-03-17T09:40:45;100668.03;;;10.50;66.63
38466;BME280;24244;51.950;5.902;2023-03-17T09:43:19;100672.78;;;10.54;66.51
38466;BME280;24244;51.950;5.902;2023-03-17T09:45:50;100657.09;;;10.59;66.63
38466;BME280;24244;51.950;5.902;2023-03-17T09:48:39;100654.31;;;10.68;66.74
38466;BME280;24244;51.950;5.902;2023-03-17T09:51:12;100661.34;;;10.75;66.67
38466;BME280;24244;51.950;5.902;2023-03-17T09:53:44;100655.06;;;10.83;66.33
38466;BME280;24244;51.950;5.902;2023-03-17T09:56:17;100657.41;;;10.92;66.21
38466;BME280;24244;51.950;5.902;2023-03-17T09:58:49;100650.50;;;10.98;66.50
38466;BME280;24244;51.950;5.902;2023-03-17T10:01:17;100661.00;;;11.06;66.11
38466;BME280;24244;51.950;5.902;2023-03-17T10:03:45;100660.06;;;11.14;66.46
38466;BME280;24244;51.950;5.902;2023-03-17T10:06:31;100669.53;;;11.23;66.48
38466;BME280;24244;51.950;5.902;2023-03-17T10:09:06;100670.22;;;11.31;66.01
38466;BME280;24244;51.950;5.902;2023-03-17T10:11:40;100665.19;;;11.43;66.18
38466;BME280;24244;51.950;5.902;2023-03-17T10:17:12;100658.78;;;11.65;65.71
38466;BME280;24244;51.950;5.902;2023-03-17T10:19:44;100655.78;;;11.75;65.57
38466;BME280;24244;51.950;5.902;2023-03-17T10:22:16;100651.78;;;11.86;65.43
38466;BME280;24244;51.950;5.902;2023-03-17T10:24:50;100654.06;;;11.95;65.06
38466;BME280;24244;51.950;5.902;2023-03-17T10:27:19;100654.09;;;12.02;65.00
38466;BME280;24244;51.950;5.902;2023-03-17T10:29:47;100653.09;;;12.09;65.20
38466;BME280;24244;51.950;5.902;2023-03-17T10:32:14;100648.03;;;12.21;65.27
38466;BME280;24244;51.950;5.902;2023-03-17T10:34:42;100652.38;;;12.29;65.02
38466;BME280;24244;51.950;5.902;2023-03-17T10:37:12;100659.56;;;12.35;64.69
38466;BME280;24244;51.950;5.902;2023-03-17T10:39:44;100667.97;;;12.45;65.08
38466;BME280;24244;51.950;5.902;2023-03-17T10:42:20;100674.97;;;12.52;64.87
38466;BME280;24244;51.950;5.902;2023-03-17T10:44:51;100676.66;;;12.60;64.69
38466;BME280;24244;51.950;5.902;2023-03-17T10:47:33;100673.59;;;12.70;64.47
38466;BME280;24244;51.950;5.902;2023-03-17T10:50:03;100673.41;;;12.78;64.51
38466;BME280;24244;51.950;5.902;2023-03-17T10:52:44;100679.34;;;12.86;64.23
38466;BME280;24244;51.950;5.902;2023-03-17T10:55:17;100674.84;;;12.93;64.32
38466;BME280;24244;51.950;5.902;2023-03-17T10:58:05;100678.97;;;13.03;64.26
38466;BME280;24244;51.950;5.902;2023-03-17T11:00:34;100664.63;;;13.10;64.18
38466;BME280;24244;51.950;5.902;2023-03-17T11:03:10;100672.47;;;13.18;63.76
38466;BME280;24244;51.950;5.902;2023-03-17T11:05:38;100674.31;;;13.24;63.82
38466;BME280;24244;51.950;5.902;2023-03-17T11:08:17;100676.75;;;13.32;63.44
38466;BME280;24244;51.950;5.902;2023-03-17T11:10:44;100664.22;;;13.40;63.83
38466;BME280;24244;51.950;5.902;2023-03-17T11:13:16;100653.34;;;13.48;63.31
38466;BME280;24244;51.950;5.902;2023-03-17T11:15:44;100658.66;;;13.54;63.42
38466;BME280;24244;51.950;5.902;2023-03-17T11:18:17;100665.84;;;13.60;63.26
38466;BME280;24244;51.950;5.902;2023-03-17T11:20:47;100667.69;;;13.66;63.14
38466;BME280;24244;51.950;5.902;2023-03-17T11:23:28;100677.31;;;13.74;63.24
38466;BME280;24244;51.950;5.902;2023-03-17T11:26:10;100685.53;;;13.79;62.81
38466;BME280;24244;51.950;5.902;2023-03-17T11:28:48;100675.88;;;13.85;62.94
38466;BME280;24244;51.950;5.902;2023-03-17T11:31:19;100684.69;;;13.92;62.83
38466;BME280;24244;51.950;5.902;2023-03-17T11:33:55;100674.00;;;13.98;62.88
38466;BME280;24244;51.950;5.902;2023-03-17T11:36:41;100664.09;;;14.05;62.63
38466;BME280;24244;51.950;5.902;2023-03-17T11:39:15;100657.91;;;14.11;62.58
38466;BME280;24244;51.950;5.902;2023-03-17T11:41:57;100659.94;;;14.16;62.81
38466;BME280;24244;51.950;5.902;2023-03-17T11:44:53;100667.09;;;14.22;62.62
38466;BME280;24244;51.950;5.902;2023-03-17T11:47:33;100652.28;;;14.26;62.61
38466;BME280;24244;51.950;5.902;2023-03-17T11:50:14;100637.25;;;14.32;62.71
38466;BME280;24244;51.950;5.902;2023-03-17T11:52:54;100638.22;;;14.37;62.80
38466;BME280;24244;51.950;5.902;2023-03-17T11:55:32;100632.06;;;14.43;62.56
38466;BME280;24244;51.950;5.902;2023-03-17T11:58:12;100632.63;;;14.52;62.55
38466;BME280;24244;51.950;5.902;2023-03-17T12:00:45;100628.50;;;14.56;62.37
38466;BME280;24244;51.950;5.902;2023-03-17T12:03:19;100633.00;;;14.62;62.60
38466;BME280;24244;51.950;5.902;2023-03-17T12:05:50;100633.16;;;14.67;62.42
38466;BME280;24244;51.950;5.902;2023-03-17T12:08:25;100638.47;;;14.74;62.27
38466;BME280;24244;51.950;5.902;2023-03-17T12:10:58;100627.72;;;14.80;62.46
38466;BME280;24244;51.950;5.902;2023-03-17T12:13:29;100617.97;;;14.86;62.27
38466;BME280;24244;51.950;5.902;2023-03-17T12:16:05;100627.81;;;14.92;62.16
38466;BME280;24244;51.950;5.902;2023-03-17T12:18:38;100626.72;;;15.00;62.34
38466;BME280;24244;51.950;5.902;2023-03-17T12:21:12;100621.56;;;15.05;62.10
38466;BME280;24244;51.950;5.902;2023-03-17T12:23:46;100613.47;;;15.11;62.01
38466;BME280;24244;51.950;5.902;2023-03-17T12:26:17;100609.09;;;15.17;61.85
38466;BME280;24244;51.950;5.902;2023-03-17T12:28:48;100609.03;;;15.23;61.93
38466;BME280;24244;51.950;5.902;2023-03-17T12:31:20;100618.84;;;15.29;61.94
38466;BME280;24244;51.950;5.902;2023-03-17T12:33:54;100611.56;;;15.37;61.78
38466;BME280;24244;51.950;5.902;2023-03-17T12:36:24;100609.03;;;15.42;61.61
38466;BME280;24244;51.950;5.902;2023-03-17T12:38:55;100611.69;;;15.48;61.58
38466;BME280;24244;51.950;5.902;2023-03-17T12:41:48;100611.84;;;15.53;61.63
38466;BME280;24244;51.950;5.902;2023-03-17T12:44:32;100613.66;;;15.59;61.45
38466;BME280;24244;51.950;5.902;2023-03-17T12:47:41;100614.59;;;15.65;61.35
38466;BME280;24244;51.950;5.902;2023-03-17T12:50:28;100606.50;;;15.72;61.34
38466;BME280;24244;51.950;5.902;2023-03-17T12:53:20;100605.59;;;15.78;61.39
38466;BME280;24244;51.950;5.902;2023-03-17T12:55:51;100595.88;;;15.83;61.14
38466;BME280;24244;51.950;5.902;2023-03-17T12:58:27;100599.72;;;15.87;61.20
38466;BME280;24244;51.950;5.902;2023-03-17T13:01:00;100599.03;;;15.92;61.04
38466;BME280;24244;51.950;5.902;2023-03-17T13:03:33;100604.56;;;15.97;61.17
38466;BME280;24244;51.950;5.902;2023-03-17T13:06:05;100603.44;;;16.04;60.93
38466;BME280;24244;51.950;5.902;2023-03-17T13:08:39;100595.53;;;16.10;60.93
38466;BME280;24244;51.950;5.902;2023-03-17T13:11:17;100587.03;;;16.13;60.79
38466;BME280;24244;51.950;5.902;2023-03-17T13:14:13;100587.16;;;16.18;60.65
38466;BME280;24244;51.950;5.902;2023-03-17T13:16:44;100579.47;;;16.21;60.59
38466;BME280;24244;51.950;5.902;2023-03-17T13:19:18;100585.22;;;16.25;60.72
38466;BME280;24244;51.950;5.902;2023-03-17T13:24:45;100588.41;;;16.33;60.53
38466;BME280;24244;51.950;5.902;2023-03-17T13:27:14;100588.75;;;16.37;60.49